Arverne, New York
Current Conditions -  °F | °C
As of 3:51 AM on Thursday 27 Nov 2014 (Local Time) from KJFK Reporting Station
Overcast Overcast  
Wind Chill: 29°   Ceiling: 7000
Heat Index: 37°   Visibility: 10mi
Dew Point: 30°   Wind: 13mph
Humidity: 76%   Direction: 320°NW
Pressure: 29.93"   Gusts: NA
Location:  40.59°N, 73.8°W
Report Text: KJFK 270851Z 32011KT 10SM FEW024 OVC070 03/M01 A2993 RMK AO2 SLP134 60000 T00281011 51024 $
Loading
Personal Weather Stations






























Interactive Weather Map New forecast layout! Learn more

10-Day Weather Forecast

Advertisements
Track Severe Weather on mobile